createdAt,value
2018-03-15T00:01:02.432Z,7.30
2018-03-15T00:03:37.020Z,7.30
2018-03-15T00:06:11.795Z,7.20
2018-03-15T00:08:46.498Z,7.20
2018-03-15T00:11:21.932Z,7.20
2018-03-15T00:13:56.688Z,7.20
2018-03-15T00:16:31.543Z,7.10
2018-03-15T00:19:06.220Z,7.20
2018-03-15T00:21:41.256Z,7.20
2018-03-15T00:24:16.339Z,7.20
2018-03-15T00:26:50.851Z,7.10
2018-03-15T00:29:25.514Z,7.10
2018-03-15T00:32:00.382Z,7.10
2018-03-15T00:34:35.123Z,7.10
2018-03-15T00:37:09.634Z,7.00
2018-03-15T00:39:44.240Z,7.00
2018-03-15T00:42:19.037Z,7.00
2018-03-15T00:44:53.812Z,7.00
2018-03-15T00:47:28.477Z,6.90
2018-03-15T00:49:58.906Z,6.90
2018-03-15T00:52:33.399Z,6.90
2018-03-15T00:55:07.964Z,6.90
2018-03-15T00:57:42.475Z,6.90
2018-03-15T01:00:16.875Z,6.90
2018-03-15T01:02:51.559Z,6.90
2018-03-15T01:05:26.189Z,6.90
2018-03-15T01:08:01.226Z,6.90
2018-03-15T01:10:35.847Z,6.90
2018-03-15T01:13:10.463Z,6.90
2018-03-15T01:15:45.956Z,6.90
2018-03-15T01:18:22.132Z,6.90
2018-03-15T01:20:58.272Z,6.90
2018-03-15T01:23:32.981Z,6.80
2018-03-15T01:26:07.555Z,6.80
2018-03-15T01:28:42.305Z,6.80
2018-03-15T01:31:16.890Z,6.80
2018-03-15T01:33:51.566Z,6.80
2018-03-15T01:36:26.399Z,6.80
2018-03-15T01:39:02.027Z,6.70
2018-03-15T01:41:37.342Z,6.70
2018-03-15T01:44:11.913Z,6.70
2018-03-15T01:46:46.490Z,6.70
2018-03-15T01:49:21.156Z,6.70
2018-03-15T01:51:56.030Z,6.60
2018-03-15T01:54:30.863Z,6.60
2018-03-15T01:57:06.439Z,6.60
2018-03-15T01:59:41.014Z,6.60
2018-03-15T02:02:15.721Z,6.60
2018-03-15T02:04:50.302Z,6.60
2018-03-15T02:07:25.005Z,6.60
2018-03-15T02:09:59.653Z,6.60
2018-03-15T02:12:35.084Z,6.50
2018-03-15T02:15:09.641Z,6.50
2018-03-15T02:17:44.473Z,6.50
2018-03-15T02:20:19.167Z,6.50
2018-03-15T02:22:54.055Z,6.40
2018-03-15T02:25:28.561Z,6.40
2018-03-15T02:28:05.351Z,6.40
2018-03-15T02:30:40.016Z,6.40
2018-03-15T02:33:14.674Z,6.40
2018-03-15T02:35:49.295Z,6.40
2018-03-15T02:38:24.841Z,6.30
2018-03-15T02:40:59.462Z,6.30
2018-03-15T02:43:34.935Z,6.30
2018-03-15T02:46:10.053Z,6.30
2018-03-15T02:48:45.751Z,6.30
2018-03-15T02:51:20.469Z,6.30
2018-03-15T02:53:55.310Z,6.30
2018-03-15T02:56:30.072Z,6.30
2018-03-15T02:59:04.662Z,6.30
2018-03-15T03:01:39.346Z,6.30
2018-03-15T03:04:13.932Z,6.30
2018-03-15T03:06:48.508Z,6.30
2018-03-15T03:09:23.557Z,6.30
2018-03-15T03:12:01.442Z,6.20
2018-03-15T03:14:35.904Z,6.30
2018-03-15T03:17:10.880Z,6.30
2018-03-15T03:19:45.622Z,6.20
2018-03-15T03:22:20.330Z,6.20
2018-03-15T03:24:55.040Z,6.30
2018-03-15T03:27:32.713Z,6.20
2018-03-15T03:30:07.416Z,6.20
2018-03-15T03:32:42.701Z,6.20
2018-03-15T03:35:18.284Z,6.20
2018-03-15T03:37:53.008Z,6.20
2018-03-15T03:40:27.533Z,6.20
2018-03-15T03:43:02.145Z,6.20
2018-03-15T03:45:37.899Z,6.20
2018-03-15T03:48:12.526Z,6.10
2018-03-15T03:50:47.232Z,6.10
2018-03-15T03:53:22.659Z,6.10
2018-03-15T03:55:57.460Z,6.10
2018-03-15T03:58:31.983Z,6.10
2018-03-15T04:01:06.193Z,6.10
2018-03-15T04:03:40.868Z,6.10
2018-03-15T04:06:15.716Z,6.10
2018-03-15T04:08:50.625Z,6.20
2018-03-15T04:11:26.280Z,6.10
2018-03-15T04:14:01.048Z,6.10
2018-03-15T04:16:35.605Z,6.10
2018-03-15T04:19:10.481Z,6.10
2018-03-15T04:21:45.134Z,6.10
2018-03-15T04:24:19.800Z,6.10
2018-03-15T04:26:54.512Z,6.10
2018-03-15T04:29:29.886Z,6.00
2018-03-15T04:32:04.516Z,6.00
2018-03-15T04:34:39.213Z,6.00
2018-03-15T04:37:13.824Z,6.00
2018-03-15T04:39:48.375Z,6.00
2018-03-15T04:42:23.029Z,6.00
2018-03-15T04:44:57.757Z,6.00
2018-03-15T04:47:32.295Z,6.00
2018-03-15T04:50:07.732Z,6.10
2018-03-15T04:52:42.426Z,6.10
2018-03-15T04:55:17.817Z,6.00
2018-03-15T04:57:52.465Z,6.00
2018-03-15T05:00:27.263Z,6.00
2018-03-15T05:03:02.564Z,6.00
2018-03-15T05:05:38.152Z,6.00
2018-03-15T05:08:12.777Z,6.00
2018-03-15T05:10:47.375Z,6.00
2018-03-15T05:13:22.227Z,6.00
2018-03-15T05:15:56.722Z,6.00
2018-03-15T05:18:31.309Z,6.00
2018-03-15T05:21:05.923Z,6.00
2018-03-15T05:23:40.490Z,6.00
2018-03-15T05:26:15.167Z,6.10
2018-03-15T05:28:49.701Z,6.00
2018-03-15T05:31:24.217Z,6.00
2018-03-15T05:33:58.890Z,6.00
2018-03-15T05:36:33.356Z,6.00
2018-03-15T05:39:08.812Z,6.00
2018-03-15T05:41:43.420Z,6.00
2018-03-15T05:44:17.967Z,6.00
2018-03-15T05:46:52.553Z,6.10
2018-03-15T05:49:27.101Z,6.10
2018-03-15T05:52:01.728Z,6.10
2018-03-15T05:54:36.532Z,6.10
2018-03-15T05:57:10.758Z,6.00
2018-03-15T05:59:45.270Z,6.10
2018-03-15T06:02:19.928Z,6.10
2018-03-15T06:04:56.162Z,6.10
2018-03-15T06:07:30.925Z,6.20
2018-03-15T06:10:05.872Z,6.20
2018-03-15T06:12:41.354Z,6.20
2018-03-15T06:15:16.044Z,6.20
2018-03-15T06:17:50.718Z,6.30
2018-03-15T06:20:25.306Z,6.30
2018-03-15T06:22:59.834Z,6.40
2018-03-15T06:25:36.341Z,6.40
2018-03-15T06:28:10.962Z,6.40
2018-03-15T06:30:45.478Z,6.50
2018-03-15T06:33:20.781Z,6.60
2018-03-15T06:35:55.311Z,6.60
2018-03-15T06:38:29.906Z,6.60
2018-03-15T06:41:04.593Z,6.60
2018-03-15T06:43:38.934Z,6.70
2018-03-15T06:46:13.579Z,6.70
2018-03-15T06:48:48.381Z,6.80
2018-03-15T06:51:22.890Z,6.80
2018-03-15T06:53:57.406Z,6.90
2018-03-15T06:56:32.153Z,6.90
2018-03-15T06:59:06.777Z,6.90
2018-03-15T07:01:41.504Z,6.90
2018-03-15T07:04:16.125Z,7.00
2018-03-15T07:06:50.766Z,7.10
2018-03-15T07:09:20.636Z,7.20
2018-03-15T07:11:49.816Z,7.20
2018-03-15T07:14:18.857Z,7.20
2018-03-15T07:16:48.640Z,7.20
2018-03-15T07:19:18.514Z,7.30
2018-03-15T07:21:47.590Z,7.20
2018-03-15T07:24:22.374Z,7.30
2018-03-15T07:26:56.956Z,7.20
2018-03-15T07:29:31.619Z,7.20
2018-03-15T07:32:06.201Z,7.20
2018-03-15T07:34:40.629Z,7.30
2018-03-15T07:37:15.200Z,7.30
2018-03-15T07:39:49.823Z,7.30
2018-03-15T07:42:24.690Z,7.40
2018-03-15T07:44:59.379Z,7.50
2018-03-15T07:47:34.063Z,7.50
2018-03-15T07:50:08.416Z,7.60
2018-03-15T07:52:42.946Z,7.60
2018-03-15T07:55:18.294Z,7.80
2018-03-15T07:57:52.903Z,7.80
2018-03-15T08:00:27.455Z,7.90
2018-03-15T08:03:02.192Z,8.00
2018-03-15T08:05:36.952Z,8.00
2018-03-15T08:08:11.666Z,8.10
2018-03-15T08:10:46.408Z,8.20
2018-03-15T08:13:20.934Z,8.20
2018-03-15T08:15:55.519Z,8.30
2018-03-15T08:18:30.835Z,8.50
2018-03-15T08:21:05.346Z,8.50
2018-03-15T08:23:40.796Z,8.60
2018-03-15T08:26:15.321Z,8.60
2018-03-15T08:28:49.930Z,8.70
2018-03-15T08:31:25.444Z,8.90
2018-03-15T08:34:00.313Z,8.80
2018-03-15T08:36:34.696Z,8.90
2018-03-15T08:39:09.460Z,9.00
2018-03-15T08:41:44.021Z,9.10
2018-03-15T08:44:18.734Z,9.20
2018-03-15T08:46:53.358Z,9.20
2018-03-15T08:49:27.690Z,9.30
2018-03-15T08:52:03.000Z,9.40
2018-03-15T08:54:37.604Z,9.40
2018-03-15T08:57:12.063Z,9.40
2018-03-15T08:59:48.181Z,9.50
2018-03-15T09:02:22.905Z,9.50
2018-03-15T09:04:58.270Z,9.60
2018-03-15T09:07:32.967Z,9.60
2018-03-15T09:10:07.305Z,9.60
2018-03-15T09:12:42.762Z,9.70
2018-03-15T09:15:17.520Z,9.70
2018-03-15T09:17:52.117Z,9.70
2018-03-15T09:20:26.747Z,9.70
2018-03-15T09:23:02.071Z,9.80
2018-03-15T09:25:36.707Z,9.80
2018-03-15T09:28:11.369Z,9.90
2018-03-15T09:30:45.889Z,9.90
2018-03-15T09:33:21.402Z,10.10
2018-03-15T09:35:56.324Z,10.10
2018-03-15T09:38:31.034Z,10.20
2018-03-15T09:41:05.779Z,10.30
2018-03-15T09:43:40.468Z,10.30
2018-03-15T09:46:15.425Z,10.50
2018-03-15T09:48:51.179Z,10.60
2018-03-15T09:51:25.908Z,10.70
2018-03-15T09:54:01.467Z,10.80
2018-03-15T09:56:37.249Z,10.80
2018-03-15T09:59:12.266Z,10.80
2018-03-15T10:01:47.943Z,11.00
2018-03-15T10:04:22.727Z,11.00
2018-03-15T10:06:57.419Z,11.10
2018-03-15T10:09:32.286Z,11.20
2018-03-15T10:12:07.908Z,11.30
2018-03-15T10:14:44.129Z,11.40
2018-03-15T10:17:18.875Z,11.40
2018-03-15T10:19:53.514Z,11.50
2018-03-15T10:22:28.437Z,11.70
2018-03-15T10:25:13.607Z,11.70
2018-03-15T10:27:37.895Z,11.80
2018-03-15T10:30:12.530Z,12.00
2018-03-15T10:35:50.223Z,12.40
2018-03-15T10:38:24.965Z,12.40
2018-03-15T10:41:00.548Z,12.60
2018-03-15T10:43:35.468Z,12.60
2018-03-15T10:46:10.254Z,12.70
2018-03-15T10:48:45.119Z,12.80
2018-03-15T10:51:20.056Z,12.90
2018-03-15T10:53:54.992Z,13.10
2018-03-15T10:56:29.775Z,13.20
2018-03-15T10:59:04.360Z,13.20
2018-03-15T11:01:44.700Z,13.30
2018-03-15T11:04:34.720Z,13.50
2018-03-15T11:07:26.153Z,13.50
2018-03-15T11:10:00.889Z,13.60
2018-03-15T11:12:35.735Z,13.60
2018-03-15T11:15:10.640Z,13.70
2018-03-15T11:17:45.604Z,13.70
2018-03-15T11:20:21.161Z,13.70
2018-03-15T11:22:55.892Z,13.70
2018-03-15T11:25:30.791Z,13.70
2018-03-15T11:28:05.557Z,13.60
2018-03-15T11:30:40.996Z,13.70
2018-03-15T11:33:16.080Z,13.70
2018-03-15T11:35:51.566Z,13.90
2018-03-15T11:38:27.074Z,13.90
2018-03-15T11:41:02.562Z,13.90
2018-03-15T11:43:37.500Z,13.90
2018-03-15T11:46:12.405Z,13.90
2018-03-15T11:48:47.092Z,13.90
2018-03-15T11:51:22.028Z,14.00
2018-03-15T11:53:57.088Z,14.00
2018-03-15T11:56:32.571Z,14.00
2018-03-15T11:59:08.121Z,14.00
2018-03-15T12:01:42.970Z,14.00
2018-03-15T12:04:17.965Z,14.00
2018-03-15T12:06:52.834Z,14.00
2018-03-15T12:09:28.846Z,14.00
2018-03-15T12:12:04.407Z,13.90
2018-03-15T12:14:39.143Z,13.90
2018-03-15T12:17:13.974Z,13.80
2018-03-15T12:19:48.838Z,13.80
2018-03-15T12:22:24.234Z,13.80
2018-03-15T12:24:59.611Z,13.80
2018-03-15T12:27:34.148Z,13.80
2018-03-15T12:30:09.608Z,13.90
2018-03-15T12:32:45.084Z,13.90
2018-03-15T12:35:19.612Z,13.90
2018-03-15T12:37:54.181Z,13.90
2018-03-15T12:40:29.760Z,13.90
2018-03-15T12:43:04.408Z,13.90
2018-03-15T12:45:39.075Z,13.90
2018-03-15T12:48:13.759Z,14.00
2018-03-15T12:50:48.290Z,14.00
2018-03-15T12:53:23.102Z,14.10
2018-03-15T12:55:57.746Z,14.20
2018-03-15T12:58:32.453Z,14.20
2018-03-15T13:01:01.353Z,14.30
2018-03-15T13:03:30.636Z,14.40
2018-03-15T13:05:59.869Z,14.30
2018-03-15T13:08:29.007Z,14.30
2018-03-15T13:10:58.235Z,14.30
2018-03-15T13:13:27.454Z,14.20
2018-03-15T13:15:57.255Z,14.20
2018-03-15T13:18:26.141Z,14.20
2018-03-15T13:21:00.709Z,14.20
2018-03-15T13:23:35.195Z,14.20
2018-03-15T13:26:09.736Z,14.10
2018-03-15T13:28:44.445Z,14.10
2018-03-15T13:31:18.963Z,14.10
2018-03-15T13:33:53.496Z,14.10
2018-03-15T13:36:28.234Z,14.00
2018-03-15T13:39:02.856Z,14.00
2018-03-15T13:41:37.414Z,13.90
2018-03-15T13:44:07.980Z,13.90
2018-03-15T13:46:38.531Z,13.80
2018-03-15T13:49:07.619Z,13.80
2018-03-15T13:51:36.739Z,13.80
2018-03-15T13:54:05.090Z,13.80
2018-03-15T13:56:34.244Z,13.80
2018-03-15T13:59:03.197Z,13.80
2018-03-15T14:01:32.140Z,13.80
2018-03-15T14:04:07.595Z,13.80
2018-03-15T14:06:42.279Z,13.80
2018-03-15T14:09:16.953Z,13.70
2018-03-15T14:11:51.551Z,13.70
2018-03-15T14:14:26.874Z,13.70
2018-03-15T14:17:01.679Z,13.70
2018-03-15T14:19:36.475Z,13.70
2018-03-15T14:22:05.372Z,13.70
2018-03-15T14:24:39.975Z,13.70
2018-03-15T14:27:09.034Z,13.80
2018-03-15T14:29:44.363Z,13.80
2018-03-15T14:32:19.142Z,13.80
2018-03-15T14:34:53.839Z,13.90
2018-03-15T14:37:28.211Z,14.00
2018-03-15T14:40:02.975Z,14.00
2018-03-15T14:42:32.877Z,13.90
2018-03-15T14:45:07.488Z,13.90
2018-03-15T14:47:42.162Z,13.90
2018-03-15T14:50:16.734Z,13.90
2018-03-15T14:52:46.646Z,13.90
2018-03-15T14:55:21.456Z,13.80
2018-03-15T14:57:56.111Z,13.80
2018-03-15T15:00:30.871Z,13.80
2018-03-15T15:03:05.232Z,13.80
2018-03-15T15:05:40.345Z,13.70
2018-03-15T15:08:15.194Z,13.60
2018-03-15T15:10:51.281Z,13.60
2018-03-15T15:13:25.995Z,13.60
2018-03-15T15:16:01.662Z,13.60
2018-03-15T15:18:36.311Z,13.60
2018-03-15T15:21:10.891Z,13.70
2018-03-15T15:23:45.894Z,13.80
2018-03-15T15:26:20.655Z,13.80
2018-03-15T15:28:55.312Z,13.80
2018-03-15T15:31:30.201Z,13.80
2018-03-15T15:34:05.336Z,13.80
2018-03-15T15:36:40.096Z,13.70
2018-03-15T15:39:14.713Z,13.60
2018-03-15T15:41:50.188Z,13.50
2018-03-15T15:44:24.899Z,13.50
2018-03-15T15:46:59.477Z,13.50
2018-03-15T15:49:34.180Z,13.50
2018-03-15T15:52:08.757Z,13.50
2018-03-15T15:54:43.371Z,13.50
2018-03-15T15:57:17.914Z,13.40
2018-03-15T15:59:53.344Z,13.40
2018-03-15T16:02:28.832Z,13.40
2018-03-15T16:05:03.972Z,13.30
2018-03-15T16:07:38.730Z,13.30
2018-03-15T16:10:13.205Z,13.30
2018-03-15T16:12:47.808Z,13.30
2018-03-15T16:15:22.395Z,13.20
2018-03-15T16:17:57.749Z,13.10
2018-03-15T16:20:33.025Z,13.10
2018-03-15T16:23:07.814Z,13.10
2018-03-15T16:25:42.340Z,13.00
2018-03-15T16:28:17.886Z,12.90
2018-03-15T16:30:52.582Z,12.90
2018-03-15T16:33:27.212Z,12.90
2018-03-15T16:36:01.767Z,12.90
2018-03-15T16:38:37.100Z,12.80
2018-03-15T16:41:11.802Z,12.70
2018-03-15T16:43:46.366Z,12.80
2018-03-15T16:46:21.174Z,12.70
2018-03-15T16:48:55.932Z,12.70
2018-03-15T16:51:31.613Z,12.70
2018-03-15T16:54:06.563Z,12.70
2018-03-15T16:56:41.252Z,12.60
2018-03-15T16:59:15.883Z,12.60
2018-03-15T17:01:51.464Z,12.50
2018-03-15T17:04:26.147Z,12.50
2018-03-15T17:07:00.893Z,12.50
2018-03-15T17:09:35.718Z,12.50
2018-03-15T17:12:10.996Z,12.50
2018-03-15T17:14:45.844Z,12.50
2018-03-15T17:17:20.485Z,12.40
2018-03-15T17:19:55.207Z,12.40
2018-03-15T17:22:30.174Z,12.30
2018-03-15T17:25:05.148Z,12.30
2018-03-15T17:27:39.794Z,12.30
2018-03-15T17:30:14.461Z,12.30
2018-03-15T17:32:49.392Z,12.20
2018-03-15T17:35:24.581Z,12.20
2018-03-15T17:38:00.272Z,12.10
2018-03-15T17:40:34.947Z,12.10
2018-03-15T17:43:10.037Z,12.10
2018-03-15T17:45:45.611Z,12.10
2018-03-15T17:48:20.989Z,12.20
2018-03-15T17:50:56.219Z,12.10
2018-03-15T17:53:31.783Z,12.10
2018-03-15T17:56:08.052Z,12.10
2018-03-15T17:58:42.901Z,12.10
2018-03-15T18:01:18.315Z,12.10
2018-03-15T18:03:53.230Z,12.10
2018-03-15T18:06:28.047Z,12.00
2018-03-15T18:09:03.131Z,12.00
2018-03-15T18:11:37.909Z,12.00
2018-03-15T18:14:12.662Z,12.00
2018-03-15T18:16:47.413Z,12.00
2018-03-15T18:19:22.026Z,12.00
2018-03-15T18:21:57.314Z,12.00
2018-03-15T18:24:32.972Z,12.00
2018-03-15T18:27:07.486Z,12.00
2018-03-15T18:29:42.208Z,12.00
2018-03-15T18:32:16.955Z,12.00
2018-03-15T18:34:46.272Z,12.00
2018-03-15T18:37:15.341Z,12.00
2018-03-15T18:39:44.358Z,11.80
2018-03-15T18:42:13.493Z,11.60
2018-03-15T18:44:43.300Z,11.30
2018-03-15T18:47:12.286Z,11.30
2018-03-15T18:49:42.096Z,11.10
2018-03-15T18:52:11.738Z,10.90
2018-03-15T18:54:41.580Z,10.80
2018-03-15T18:57:11.316Z,10.70
2018-03-15T18:59:41.029Z,10.60
2018-03-15T19:02:09.937Z,10.60
2018-03-15T19:04:39.617Z,10.40
2018-03-15T19:07:10.425Z,10.40
2018-03-15T19:09:45.096Z,10.40
2018-03-15T19:12:19.742Z,10.30
2018-03-15T19:14:48.633Z,10.20
2018-03-15T19:17:18.547Z,10.20
2018-03-15T19:19:48.378Z,10.20
2018-03-15T19:22:17.288Z,10.10
2018-03-15T19:24:46.290Z,10.00
2018-03-15T19:27:16.673Z,10.00
2018-03-15T19:29:46.852Z,9.90
2018-03-15T19:32:16.650Z,9.70
2018-03-15T19:34:47.459Z,9.70
2018-03-15T19:37:17.457Z,9.70
2018-03-15T19:39:53.179Z,9.70
2018-03-15T19:42:28.075Z,9.60
2018-03-15T19:44:57.837Z,9.50
2018-03-15T19:47:27.005Z,9.50
2018-03-15T19:49:57.606Z,9.30
2018-03-15T19:52:27.620Z,9.20
2018-03-15T19:54:56.810Z,9.20
2018-03-15T19:57:25.972Z,9.10
2018-03-15T19:59:55.936Z,9.00
2018-03-15T20:02:25.114Z,9.00
2018-03-15T20:04:55.131Z,8.90
2018-03-15T20:07:25.937Z,8.80
2018-03-15T20:09:55.920Z,8.80
2018-03-15T20:12:24.954Z,8.80
2018-03-15T20:14:54.005Z,8.70
2018-03-15T20:17:23.269Z,8.60
2018-03-15T20:19:52.577Z,8.60
2018-03-15T20:22:27.106Z,8.50
2018-03-15T20:24:56.495Z,8.50
2018-03-15T20:27:31.080Z,8.40
2018-03-15T20:30:00.150Z,8.40
2018-03-15T20:32:34.848Z,8.40
2018-03-15T20:35:09.635Z,8.40
2018-03-15T20:37:44.194Z,8.40
2018-03-15T20:40:20.554Z,8.40
2018-03-15T20:42:49.745Z,8.40
2018-03-15T20:45:29.904Z,8.40
2018-03-15T20:48:05.271Z,8.40
2018-03-15T20:50:39.983Z,8.30
2018-03-15T20:53:14.706Z,8.30
2018-03-15T20:55:50.966Z,8.30
2018-03-15T20:58:26.627Z,8.30
2018-03-15T21:01:01.881Z,8.20
2018-03-15T21:03:36.658Z,8.20
2018-03-15T21:06:12.045Z,8.20
2018-03-15T21:08:46.567Z,8.20
2018-03-15T21:11:22.628Z,8.30
2018-03-15T21:13:52.524Z,8.20
2018-03-15T21:16:27.401Z,8.20
2018-03-15T21:19:02.128Z,8.30
2018-03-15T21:21:37.082Z,8.40
2018-03-15T21:24:11.814Z,8.40
2018-03-15T21:26:46.444Z,8.40
2018-03-15T21:29:21.317Z,8.30
2018-03-15T21:31:56.172Z,8.40
2018-03-15T21:34:30.761Z,8.30
2018-03-15T21:37:05.417Z,8.40
2018-03-15T21:39:39.990Z,8.40
2018-03-15T21:42:14.534Z,8.30
2018-03-15T21:44:49.152Z,8.40
2018-03-15T21:47:23.804Z,8.40
2018-03-15T21:49:59.332Z,8.40
2018-03-15T21:52:33.874Z,8.40
2018-03-15T21:55:08.579Z,8.50
2018-03-15T21:57:44.013Z,8.50
2018-03-15T22:00:18.563Z,8.50
2018-03-15T22:02:53.235Z,8.50
2018-03-15T22:05:27.799Z,8.50
2018-03-15T22:08:02.364Z,8.50
2018-03-15T22:10:37.825Z,8.50
2018-03-15T22:13:12.508Z,8.50
2018-03-15T22:15:47.170Z,8.50
2018-03-15T22:18:21.796Z,8.60
2018-03-15T22:20:56.577Z,8.60
2018-03-15T22:23:31.375Z,8.50
2018-03-15T22:26:06.884Z,8.60
2018-03-15T22:28:41.569Z,8.50
2018-03-15T22:31:16.228Z,8.50
2018-03-15T22:33:51.724Z,8.50
2018-03-15T22:36:26.377Z,8.40
2018-03-15T22:39:00.919Z,8.40
2018-03-15T22:41:35.415Z,8.40
2018-03-15T22:44:10.319Z,8.40
2018-03-15T22:46:45.437Z,8.50
2018-03-15T22:49:20.036Z,8.50
2018-03-15T22:51:54.848Z,8.50
2018-03-15T22:54:29.521Z,8.50
2018-03-15T22:57:04.073Z,8.50
2018-03-15T22:59:39.551Z,8.50
2018-03-15T23:02:14.228Z,8.50
2018-03-15T23:04:49.012Z,8.50
2018-03-15T23:07:23.601Z,8.50
2018-03-15T23:09:58.445Z,8.60
2018-03-15T23:12:32.933Z,8.60
2018-03-15T23:15:07.707Z,8.50
2018-03-15T23:17:42.413Z,8.50
2018-03-15T23:20:17.157Z,8.50
2018-03-15T23:22:51.797Z,8.50
2018-03-15T23:25:26.272Z,8.40
2018-03-15T23:28:01.033Z,8.50
2018-03-15T23:30:35.793Z,8.40
2018-03-15T23:33:10.596Z,8.40
2018-03-15T23:35:45.336Z,8.40
2018-03-15T23:38:19.888Z,8.40
2018-03-15T23:40:54.551Z,8.40
2018-03-15T23:43:30.017Z,8.40
2018-03-15T23:46:04.680Z,8.40
2018-03-15T23:48:39.316Z,8.40
2018-03-15T23:51:13.885Z,8.40
2018-03-15T23:53:48.622Z,8.30
2018-03-15T23:56:23.390Z,8.40
2018-03-15T23:58:57.940Z,8.30
